Terminal Aerodrome Forecast
Issued by NWS North Platte, NE

Home | Current Version | Previous Version | Graphics & Text | Print | Product List | Glossary On
Versions: 1 2 3 4 5 6 7 8 9 10 11 12 13 14
000
FTUS43 KLBF 221100
TAFVTN
TAF
KVTN 221124Z 2212/2312 15007KT P6SM SCT120 SCT250
     FM221500 17018G25KT P6SM SCT250
     FM221800 17022G30KT P6SM SCT120 SCT250
     FM230100 15019G25KT P6SM BKN120 BKN200
     FM230600 15018KT P6SM BKN200=

USA.gov is the U.S. government's official web portal to all federal, state and local government web resources and services.